Details From LPPT - Lisboa
To LFMK - Salvaza
Flight Number -
Tags Generated
Created
Modified
Stats Distance 582 nm / 1,077 km
Max Altitude 0 ft / 0 m
Waypoints 4
Social Downloads 1
Likes 0
Share VATSIM

Download

Looking for another format? Having issues loading an existing format? Contact us
Advertisement - Login to hide

Notes

Generated

Route

LPPT SIE04 RIBOU LFMK

ID Type Via Altitude Latitude Longitude Leg Dist Tot Dist Heading (true) Name
O LPPT APT - 0 ft / 0 m 38.78624˚ -9.13721˚ - 0 nm - -
SIE04 FIX - 0 ft / 0 m 41.18019˚ -3.52479˚ 295 nm 295 nm 59° / 63° -
RIBOU FIX - 0 ft / 0 m 43.07972˚ 1.92889˚ 268 nm 563 nm 63° / 67° -
O LFMK APT - 0 ft / 0 m 43.21714˚ 2.29266˚ 17 nm 581 nm 63° / 63° -

Altitude Profile

Advertisement - Login to hide

Weather


0- 5 10 15 20 25 30 35+ Temperature / ° C

Clouds and Precipitation
Forecast for 2018-05-22 12:00 UTC. Updated 5 hours ago

Ground ~20,000 ft ~40,000 ft Winds

LPPT

Details ICAO LPPT (LIS)
Name Lisboa
Region Portugal
Timezone Europe/Lisbon (UTC+1.0)
Stats Elevation 374 ft / 114 m (AMSL)
Location 38.778559° -9.135146°
Runways 2
Magnetic Variation 2.310° W

METAR

LPPT 221600Z 22011KT 9999 FEW032 19/12 Q1014

Decode

TAF

TAF LPPT 221100Z 2212/2318 18008KT 9999 BKN022 BECMG 2212/2215 22012KT FEW030 BECMG 2220/2223 VRB03KT SCT012 PROB30 TEMPO 2223/2308 BKN008 BECMG 2303/2306 13007KT BECMG 2312/2314 21008KT FEW020 SCT035 BECMG 2316/2318 30013KT

Decode

Departure Runways

ID Width Length Bearing (true) Bearing (mag) Surface Threshold Offset Overrun Length
03 148 ft / 45 m 12,518 ft / 3,815 m 22.70° 25.01° Asphalt 296 ft / 90 m 0 ft / 0 m
17 148 ft / 45 m 7,922 ft / 2,415 m 168.38° 170.69° Asphalt 0 ft / 0 m 0 ft / 0 m
21 148 ft / 45 m 12,518 ft / 3,815 m 202.72° 205.03° Asphalt 1,969 ft / 600 m 0 ft / 0 m
35 148 ft / 45 m 7,922 ft / 2,415 m 348.38° 350.69° Asphalt 492 ft / 150 m 0 ft / 0 m

LFMK

Details ICAO LFMK (CCF)
Name Salvaza
Region France
Timezone Europe/Paris (UTC+2.0)
Stats Elevation 433 ft / 132 m (AMSL)
Location 43.216122° 2.305496°
Runways 1
Magnetic Variation 0.887° E

METAR

LFMK 221600Z AUTO 28009KT 240V320 CAVOK 24/13 Q1013

Decode

TAF

Not found

Destination Runways

ID Width Length Bearing (true) Bearing (mag) Surface Threshold Offset Overrun Length
10 148 ft / 45 m 6,869 ft / 2,094 m 96.20° 95.31° Asphalt 479 ft / 146 m 0 ft / 0 m
28 148 ft / 45 m 6,869 ft / 2,094 m 276.22° 275.33° Asphalt 492 ft / 150 m 0 ft / 0 m

Approach Navaids

Runway Type Ident Frequency Range Bearing (true) Bearing (mag) Slope Elevation
10 Localiser CS 111.10 MHz 27 nm / 50 km 96.29° 95.40° - 433 ft / 132 m (AMSL)
10 Glidescope CS 111.10 MHz 27 nm / 50 km 96.29° 95.40° 3.00° 433 ft / 132 m (AMSL)
10 DME CS 111.10 MHz 27 nm / 50 km - - - 433 ft / 132 m (AMSL)